createdAt,value
2022-10-17T00:00:41.884Z,13.90
2022-10-17T00:03:08.903Z,13.90
2022-10-17T00:05:40.871Z,13.90
2022-10-17T00:08:07.563Z,14.00
2022-10-17T00:10:34.334Z,14.10
2022-10-17T00:13:01.234Z,14.00
2022-10-17T00:15:28.031Z,14.00
2022-10-17T00:17:54.645Z,14.00
2022-10-17T00:20:21.378Z,13.90
2022-10-17T00:22:47.966Z,13.90
2022-10-17T00:25:15.245Z,13.90
2022-10-17T00:27:42.593Z,13.90
2022-10-17T00:30:13.223Z,13.80
2022-10-17T00:32:40.088Z,13.90
2022-10-17T00:35:07.452Z,13.90
2022-10-17T00:37:34.308Z,13.90
2022-10-17T00:40:01.031Z,13.90
2022-10-17T00:42:28.389Z,13.90
2022-10-17T00:45:20.946Z,13.90
2022-10-17T00:48:03.908Z,13.90
2022-10-17T00:50:31.852Z,13.90
2022-10-17T00:53:02.395Z,13.90
2022-10-17T00:55:33.376Z,13.90
2022-10-17T00:58:02.854Z,13.90
2022-10-17T01:00:29.578Z,13.90
2022-10-17T01:02:56.212Z,13.90
2022-10-17T01:05:22.918Z,13.90
2022-10-17T01:07:52.351Z,13.90
2022-10-17T01:10:19.697Z,13.90
2022-10-17T01:13:06.324Z,13.90
2022-10-17T01:15:45.482Z,13.90
2022-10-17T01:18:12.029Z,13.80
2022-10-17T01:21:08.465Z,13.80
2022-10-17T01:23:48.001Z,13.80
2022-10-17T01:26:50.156Z,13.80
2022-10-17T01:29:38.127Z,13.70
2022-10-17T01:32:12.527Z,13.60
2022-10-17T01:34:59.461Z,13.60
2022-10-17T01:37:34.710Z,13.60
2022-10-17T01:40:04.167Z,13.60
2022-10-17T01:42:46.061Z,13.60
2022-10-17T01:45:19.758Z,13.50
2022-10-17T01:47:50.401Z,13.60
2022-10-17T01:50:25.785Z,13.60
2022-10-17T01:52:56.906Z,13.50
2022-10-17T01:55:31.980Z,13.50
2022-10-17T01:58:22.077Z,13.50
2022-10-17T02:00:49.518Z,13.50
2022-10-17T02:03:19.537Z,13.40
2022-10-17T02:05:46.822Z,13.40
2022-10-17T02:08:14.016Z,13.40
2022-10-17T02:11:09.894Z,13.40
2022-10-17T02:13:51.575Z,13.40
2022-10-17T02:16:40.581Z,13.30
2022-10-17T02:19:32.906Z,13.30
2022-10-17T02:22:41.827Z,13.30
2022-10-17T02:25:29.347Z,13.20
2022-10-17T02:28:29.606Z,13.20
2022-10-17T02:31:12.565Z,13.20
2022-10-17T02:33:48.997Z,13.10
2022-10-17T02:36:22.205Z,13.20
2022-10-17T02:38:50.406Z,13.20
2022-10-17T02:41:18.892Z,13.20
2022-10-17T02:43:48.522Z,13.20
2022-10-17T02:46:21.023Z,13.20
2022-10-17T02:48:55.393Z,13.20
2022-10-17T02:51:35.108Z,13.20
2022-10-17T02:54:01.685Z,13.20
2022-10-17T02:56:32.886Z,13.20
2022-10-17T02:59:01.150Z,13.20
2022-10-17T03:01:28.979Z,13.20
2022-10-17T03:04:09.875Z,13.20
2022-10-17T03:06:36.633Z,13.20
2022-10-17T03:09:03.481Z,13.20
2022-10-17T03:11:30.136Z,13.20
2022-10-17T03:13:56.749Z,13.10
2022-10-17T03:16:23.361Z,13.10
2022-10-17T03:18:50.289Z,13.20
2022-10-17T03:21:17.382Z,13.20
2022-10-17T03:23:43.977Z,13.20
2022-10-17T03:26:10.634Z,13.30
2022-10-17T03:28:37.736Z,13.30
2022-10-17T03:31:09.222Z,13.20
2022-10-17T03:33:37.367Z,13.20
2022-10-17T03:36:13.184Z,13.20
2022-10-17T03:38:40.421Z,13.30
2022-10-17T03:41:07.730Z,13.30
2022-10-17T03:43:34.775Z,13.30
2022-10-17T03:46:01.943Z,13.20
2022-10-17T03:48:30.422Z,13.30
2022-10-17T03:51:01.572Z,13.30
2022-10-17T03:53:28.822Z,13.30
2022-10-17T03:55:55.810Z,13.20
2022-10-17T03:58:22.461Z,13.20
2022-10-17T04:00:49.153Z,13.10
2022-10-17T04:03:17.326Z,13.10
2022-10-17T04:05:44.081Z,13.20
2022-10-17T04:08:10.697Z,13.10
2022-10-17T04:10:37.287Z,13.10
2022-10-17T04:13:04.532Z,13.20
2022-10-17T04:15:31.142Z,13.00
2022-10-17T04:17:57.782Z,13.00
2022-10-17T04:20:24.439Z,13.10
2022-10-17T04:22:51.023Z,13.10
2022-10-17T04:25:17.657Z,13.00
2022-10-17T04:27:44.287Z,13.00
2022-10-17T04:30:11.359Z,13.00
2022-10-17T04:32:41.167Z,13.00
2022-10-17T04:35:08.274Z,12.90
2022-10-17T04:37:34.928Z,13.00
2022-10-17T04:40:01.559Z,13.00
2022-10-17T04:42:29.561Z,13.00
2022-10-17T04:44:56.430Z,13.00
2022-10-17T04:47:22.995Z,13.00
2022-10-17T04:49:49.583Z,13.00
2022-10-17T04:52:16.259Z,13.00
2022-10-17T04:54:42.867Z,13.10
2022-10-17T04:57:09.669Z,13.00
2022-10-17T04:59:36.376Z,13.10
2022-10-17T05:02:02.986Z,13.10
2022-10-17T05:04:29.606Z,13.10
2022-10-17T05:06:56.190Z,13.10
2022-10-17T05:09:22.765Z,13.10
2022-10-17T05:11:49.374Z,13.20
2022-10-17T05:14:16.341Z,13.20
2022-10-17T05:16:42.931Z,13.20
2022-10-17T05:19:09.522Z,13.20
2022-10-17T05:21:37.248Z,13.20
2022-10-17T05:24:09.050Z,13.20
2022-10-17T05:26:35.903Z,13.30
2022-10-17T05:29:03.726Z,13.30
2022-10-17T05:31:31.032Z,13.40
2022-10-17T05:34:02.505Z,13.30
2022-10-17T05:36:29.598Z,13.30
2022-10-17T05:38:56.200Z,13.40
2022-10-17T05:41:22.812Z,13.40
2022-10-17T05:43:50.217Z,13.50
2022-10-17T05:46:17.369Z,13.50
2022-10-17T05:48:43.943Z,13.50
2022-10-17T05:51:10.972Z,13.60
2022-10-17T05:53:40.114Z,13.60
2022-10-17T05:56:09.365Z,13.60
2022-10-17T05:58:49.955Z,13.60
2022-10-17T06:01:17.802Z,13.60
2022-10-17T06:03:44.559Z,13.60
2022-10-17T06:06:13.170Z,13.60
2022-10-17T06:08:39.925Z,13.60
2022-10-17T06:11:09.900Z,13.70
2022-10-17T06:13:37.618Z,13.60
2022-10-17T06:16:04.408Z,13.60
2022-10-17T06:18:31.125Z,13.80
2022-10-17T06:21:10.063Z,13.80
2022-10-17T06:23:37.325Z,13.80
2022-10-17T06:26:05.767Z,13.80
2022-10-17T06:28:32.842Z,13.90
2022-10-17T06:30:59.526Z,13.90
2022-10-17T06:33:26.260Z,14.00
2022-10-17T06:35:57.101Z,14.00
2022-10-17T06:38:24.083Z,14.00
2022-10-17T06:40:50.697Z,14.00
2022-10-17T06:43:17.277Z,14.00
2022-10-17T06:45:46.468Z,14.10
2022-10-17T06:48:13.659Z,14.10
2022-10-17T06:50:40.419Z,14.20
2022-10-17T06:53:07.009Z,14.20
2022-10-17T06:55:33.653Z,14.30
2022-10-17T06:58:00.235Z,14.30
2022-10-17T07:00:26.929Z,14.40
2022-10-17T07:02:53.594Z,14.50
2022-10-17T07:05:20.254Z,14.50
2022-10-17T07:07:48.575Z,14.50
2022-10-17T07:10:18.395Z,14.60
2022-10-17T07:12:45.816Z,14.70
2022-10-17T07:15:12.879Z,14.70
2022-10-17T07:17:39.451Z,14.80
2022-10-17T07:20:06.665Z,14.90
2022-10-17T07:22:33.282Z,14.90
2022-10-17T07:24:59.866Z,15.00
2022-10-17T07:27:26.621Z,15.10
2022-10-17T07:29:53.370Z,15.10
2022-10-17T07:32:20.048Z,15.30
2022-10-17T07:34:46.630Z,15.50
2022-10-17T07:37:13.537Z,15.60
2022-10-17T07:39:40.123Z,15.70
2022-10-17T07:42:07.703Z,15.90
2022-10-17T07:44:35.446Z,16.10
2022-10-17T07:47:02.272Z,16.40
2022-10-17T07:49:29.268Z,16.60
2022-10-17T07:51:55.944Z,16.80
2022-10-17T07:54:22.678Z,17.20
2022-10-17T07:56:50.672Z,17.50
2022-10-17T07:59:20.411Z,17.60
2022-10-17T08:01:47.095Z,17.50
2022-10-17T08:04:13.769Z,17.40
2022-10-17T08:06:40.340Z,17.30
2022-10-17T08:09:07.009Z,17.10
2022-10-17T08:11:33.597Z,17.10
2022-10-17T08:14:00.210Z,17.10
2022-10-17T08:16:26.843Z,17.00
2022-10-17T08:18:53.782Z,17.00
2022-10-17T08:21:20.454Z,17.00
2022-10-17T08:23:47.055Z,17.00
2022-10-17T08:26:16.767Z,17.00
2022-10-17T08:28:44.059Z,17.10
2022-10-17T08:31:13.216Z,17.10
2022-10-17T08:33:40.733Z,17.10
2022-10-17T08:36:08.852Z,17.00
2022-10-17T08:38:38.483Z,17.00
2022-10-17T08:41:33.086Z,17.00
2022-10-17T08:44:12.505Z,17.10
2022-10-17T08:46:42.361Z,17.00
2022-10-17T08:49:35.522Z,17.10
2022-10-17T08:52:26.194Z,17.10
2022-10-17T08:54:52.863Z,17.10
2022-10-17T08:57:19.669Z,17.10
2022-10-17T08:59:51.945Z,17.10
2022-10-17T09:02:33.470Z,17.00
2022-10-17T09:05:37.167Z,17.10
2022-10-17T09:08:27.865Z,17.10
2022-10-17T09:11:16.101Z,17.10
2022-10-17T09:14:16.071Z,17.10
2022-10-17T09:16:50.901Z,17.10
2022-10-17T09:19:25.655Z,17.10
2022-10-17T09:22:11.014Z,17.10
2022-10-17T09:24:58.894Z,17.20
2022-10-17T09:27:36.576Z,17.20
2022-10-17T09:30:44.044Z,17.20
2022-10-17T09:33:34.713Z,17.30
2022-10-17T09:36:05.550Z,17.30
2022-10-17T09:38:41.984Z,17.40
2022-10-17T09:41:42.761Z,17.40
2022-10-17T09:44:24.616Z,17.40
2022-10-17T09:47:29.772Z,17.50
2022-10-17T09:49:56.991Z,17.50
2022-10-17T09:52:36.650Z,17.50
2022-10-17T09:55:17.587Z,17.50
2022-10-17T09:57:59.897Z,17.50
2022-10-17T10:00:33.059Z,17.50
2022-10-17T10:03:15.017Z,17.50
2022-10-17T10:05:43.826Z,17.50
2022-10-17T10:08:19.361Z,17.40
2022-10-17T10:10:46.103Z,17.30
2022-10-17T10:13:20.388Z,17.20
2022-10-17T10:15:49.466Z,17.10
2022-10-17T10:18:25.288Z,17.00
2022-10-17T10:21:15.169Z,17.00
2022-10-17T10:23:44.445Z,16.90
2022-10-17T10:26:33.789Z,16.80
2022-10-17T10:29:18.727Z,16.80
2022-10-17T10:31:45.667Z,16.70
2022-10-17T10:34:30.419Z,16.60
2022-10-17T10:37:04.194Z,16.60
2022-10-17T10:39:52.862Z,16.60
2022-10-17T10:42:40.324Z,16.60
2022-10-17T10:48:21.551Z,16.40
2022-10-17T10:50:50.843Z,16.40
2022-10-17T10:53:35.161Z,16.40
2022-10-17T10:56:11.882Z,16.40
2022-10-17T10:59:04.092Z,16.30
2022-10-17T11:01:54.073Z,16.30
2022-10-17T11:04:31.610Z,16.30
2022-10-17T11:07:12.747Z,16.30
2022-10-17T11:09:51.465Z,16.30
2022-10-17T11:12:33.864Z,16.30
2022-10-17T11:15:34.874Z,16.30
2022-10-17T11:18:05.766Z,16.30
2022-10-17T11:20:58.116Z,16.30
2022-10-17T11:23:39.919Z,16.30
2022-10-17T11:26:13.301Z,16.30
2022-10-17T11:28:39.975Z,16.30
2022-10-17T11:31:12.643Z,16.30
2022-10-17T11:33:50.511Z,16.30
2022-10-17T11:36:20.234Z,16.30
2022-10-17T11:38:53.381Z,16.40
2022-10-17T11:41:55.475Z,16.30
2022-10-17T11:44:31.064Z,16.40
2022-10-17T11:46:59.912Z,16.30
2022-10-17T11:49:38.212Z,16.40
2022-10-17T11:52:51.388Z,16.30
2022-10-17T11:55:23.525Z,16.40
2022-10-17T11:58:01.685Z,16.40
2022-10-17T12:00:46.144Z,16.50
2022-10-17T12:03:25.835Z,16.40
2022-10-17T12:06:04.781Z,16.40
2022-10-17T12:08:58.163Z,16.30
2022-10-17T12:11:39.987Z,16.30
2022-10-17T12:14:43.466Z,16.30
2022-10-17T12:17:33.915Z,16.30
2022-10-17T12:20:24.796Z,16.30
2022-10-17T12:23:05.970Z,16.30
2022-10-17T12:28:17.270Z,16.30
2022-10-17T12:30:59.102Z,16.30
2022-10-17T12:33:46.115Z,16.40
2022-10-17T12:36:18.454Z,16.40
2022-10-17T12:38:50.000Z,16.40
2022-10-17T12:41:36.774Z,16.40
2022-10-17T12:44:26.875Z,16.40
2022-10-17T12:47:05.140Z,16.50
2022-10-17T12:49:53.243Z,16.50
2022-10-17T12:52:55.822Z,16.60
2022-10-17T12:55:25.994Z,16.70
2022-10-17T12:58:12.103Z,16.70
2022-10-17T13:01:18.931Z,16.70
2022-10-17T13:03:46.629Z,16.70
2022-10-17T13:06:22.807Z,16.70
2022-10-17T13:09:04.153Z,16.70
2022-10-17T13:11:34.569Z,16.70
2022-10-17T13:14:04.487Z,16.70
2022-10-17T13:16:51.023Z,16.60
2022-10-17T13:19:20.870Z,16.70
2022-10-17T13:22:06.438Z,16.70
2022-10-17T13:24:39.348Z,16.70
2022-10-17T13:27:22.204Z,16.70
2022-10-17T13:29:48.980Z,16.70
2022-10-17T13:32:15.627Z,16.60
2022-10-17T13:34:42.375Z,16.70
2022-10-17T13:37:12.967Z,16.80
2022-10-17T13:39:55.228Z,16.70
2022-10-17T13:42:30.498Z,16.70
2022-10-17T13:44:59.011Z,16.80
2022-10-17T13:47:32.624Z,16.80
2022-10-17T13:49:59.762Z,16.80
2022-10-17T13:52:29.872Z,16.80
2022-10-17T13:55:08.088Z,16.80
2022-10-17T13:57:34.931Z,16.80
2022-10-17T14:00:11.719Z,16.70
2022-10-17T14:02:41.370Z,16.70
2022-10-17T14:05:17.779Z,16.70
2022-10-17T14:10:38.667Z,16.70
2022-10-17T14:13:08.163Z,16.70
2022-10-17T14:15:36.305Z,16.70
2022-10-17T14:18:08.414Z,16.60
2022-10-17T14:23:32.994Z,16.60
2022-10-17T14:26:37.221Z,16.60
2022-10-17T14:29:06.884Z,16.60
2022-10-17T14:31:36.534Z,16.60
2022-10-17T14:34:05.494Z,16.50
2022-10-17T14:36:35.829Z,16.40
2022-10-17T14:39:03.693Z,16.40
2022-10-17T14:41:43.483Z,16.30
2022-10-17T14:44:26.437Z,16.30
2022-10-17T14:46:57.927Z,16.30
2022-10-17T14:49:37.924Z,16.20
2022-10-17T14:52:18.820Z,16.10
2022-10-17T14:54:47.873Z,16.20
2022-10-17T14:57:41.631Z,16.10
2022-10-17T15:00:10.038Z,16.00
2022-10-17T15:02:36.629Z,16.00
2022-10-17T15:05:03.261Z,16.00
2022-10-17T15:07:29.864Z,15.70
2022-10-17T15:09:57.076Z,15.70
2022-10-17T15:12:25.492Z,15.60
2022-10-17T15:14:52.844Z,15.50
2022-10-17T15:17:23.791Z,15.60
2022-10-17T15:19:50.742Z,15.60
2022-10-17T15:22:18.278Z,15.40
2022-10-17T15:24:48.311Z,15.50
2022-10-17T15:27:26.290Z,15.50
2022-10-17T15:29:53.145Z,15.50
2022-10-17T15:32:19.804Z,15.40
2022-10-17T15:34:46.558Z,15.40
2022-10-17T15:37:24.319Z,15.50
2022-10-17T15:39:55.202Z,15.40
2022-10-17T15:42:29.451Z,15.40
2022-10-17T15:44:56.773Z,15.40
2022-10-17T15:47:34.928Z,15.40
2022-10-17T15:50:02.226Z,15.40
2022-10-17T15:52:28.820Z,15.30
2022-10-17T15:54:57.338Z,15.40
2022-10-17T15:57:30.393Z,15.40
2022-10-17T16:00:00.391Z,15.30
2022-10-17T16:02:27.925Z,15.30
2022-10-17T16:04:54.580Z,15.30
2022-10-17T16:07:21.689Z,15.30
2022-10-17T16:09:48.338Z,15.30
2022-10-17T16:12:27.550Z,15.30
2022-10-17T16:14:54.620Z,15.20
2022-10-17T16:17:21.237Z,15.30
2022-10-17T16:19:47.855Z,15.20
2022-10-17T16:22:29.871Z,15.20
2022-10-17T16:24:59.160Z,15.20
2022-10-17T16:27:26.475Z,15.10
2022-10-17T16:29:53.112Z,15.10
2022-10-17T16:32:19.734Z,15.10
2022-10-17T16:34:46.327Z,15.10
2022-10-17T16:37:13.028Z,15.10
2022-10-17T16:39:39.618Z,15.10
2022-10-17T16:42:06.248Z,15.10
2022-10-17T16:44:32.895Z,15.00
2022-10-17T16:46:59.492Z,15.10
2022-10-17T16:49:26.111Z,14.90
2022-10-17T16:51:52.694Z,15.00
2022-10-17T16:54:19.341Z,14.90
2022-10-17T16:56:45.977Z,14.90
2022-10-17T16:59:12.727Z,14.90
2022-10-17T17:01:39.391Z,14.80
2022-10-17T17:04:05.985Z,14.80
2022-10-17T17:06:32.632Z,14.80
2022-10-17T17:08:59.261Z,14.70
2022-10-17T17:11:27.678Z,14.70
2022-10-17T17:13:58.682Z,14.70
2022-10-17T17:16:26.778Z,14.70
2022-10-17T17:18:58.369Z,14.70
2022-10-17T17:21:26.939Z,14.60
2022-10-17T17:23:57.146Z,14.60
2022-10-17T17:26:24.343Z,14.60
2022-10-17T17:28:51.390Z,14.50
2022-10-17T17:31:23.805Z,14.60
2022-10-17T17:33:51.469Z,14.60
2022-10-17T17:36:33.371Z,14.60
2022-10-17T17:39:01.773Z,14.60
2022-10-17T17:41:28.909Z,14.60
2022-10-17T17:43:56.002Z,14.60
2022-10-17T17:46:24.147Z,14.60
2022-10-17T17:48:52.099Z,14.60
2022-10-17T17:51:24.249Z,14.60
2022-10-17T17:53:54.245Z,14.60
2022-10-17T17:56:27.535Z,14.60
2022-10-17T17:58:57.828Z,14.60
2022-10-17T18:01:26.691Z,14.60
2022-10-17T18:03:54.814Z,14.60
2022-10-17T18:06:22.657Z,14.60
2022-10-17T18:08:51.838Z,14.60
2022-10-17T18:11:21.207Z,14.60
2022-10-17T18:13:57.460Z,14.60
2022-10-17T18:16:25.460Z,14.60
2022-10-17T18:18:52.069Z,14.60
2022-10-17T18:21:19.121Z,14.60
2022-10-17T18:23:47.569Z,14.60
2022-10-17T18:26:14.922Z,14.60
2022-10-17T18:28:43.358Z,14.60
2022-10-17T18:31:15.354Z,14.60
2022-10-17T18:33:44.496Z,14.70
2022-10-17T18:36:14.011Z,14.60
2022-10-17T18:38:41.636Z,14.60
2022-10-17T18:41:16.591Z,14.60
2022-10-17T18:43:44.843Z,14.60
2022-10-17T18:46:15.075Z,14.60
2022-10-17T18:48:44.400Z,14.60
2022-10-17T18:51:11.948Z,14.70
2022-10-17T18:53:43.466Z,14.60
2022-10-17T18:56:10.803Z,14.60
2022-10-17T18:58:38.457Z,14.60
2022-10-17T19:01:07.648Z,14.60
2022-10-17T19:03:34.255Z,14.60
2022-10-17T19:06:07.473Z,14.60
2022-10-17T19:08:34.925Z,14.70
2022-10-17T19:11:20.838Z,14.60
2022-10-17T19:13:47.692Z,14.60
2022-10-17T19:16:22.493Z,14.60
2022-10-17T19:18:50.863Z,14.60
2022-10-17T19:21:21.744Z,14.70
2022-10-17T19:24:00.324Z,14.70
2022-10-17T19:26:29.571Z,14.70
2022-10-17T19:28:56.823Z,14.70
2022-10-17T19:31:27.047Z,14.70
2022-10-17T19:33:55.061Z,14.70
2022-10-17T19:36:23.580Z,14.80
2022-10-17T19:38:54.877Z,14.80
2022-10-17T19:41:22.675Z,14.80
2022-10-17T19:43:50.010Z,14.80
2022-10-17T19:46:19.724Z,14.80
2022-10-17T19:48:47.902Z,14.80
2022-10-17T19:51:16.582Z,14.80
2022-10-17T19:53:44.053Z,14.80
2022-10-17T19:56:11.582Z,14.80
2022-10-17T19:58:45.014Z,14.80
2022-10-17T20:01:16.810Z,14.80
2022-10-17T20:03:43.659Z,14.80
2022-10-17T20:06:10.814Z,14.90
2022-10-17T20:08:38.924Z,14.80
2022-10-17T20:11:10.429Z,14.80
2022-10-17T20:13:38.326Z,14.80
2022-10-17T20:16:06.679Z,14.80
2022-10-17T20:18:33.690Z,14.80
2022-10-17T20:21:08.688Z,14.80
2022-10-17T20:23:35.947Z,14.80
2022-10-17T20:26:13.290Z,14.80
2022-10-17T20:28:52.216Z,14.70
2022-10-17T20:31:19.726Z,14.70
2022-10-17T20:33:46.347Z,14.70
2022-10-17T20:36:14.444Z,14.70
2022-10-17T20:38:41.044Z,14.70
2022-10-17T20:41:09.333Z,14.70
2022-10-17T20:43:37.029Z,14.70
2022-10-17T20:46:22.007Z,14.70
2022-10-17T20:48:54.049Z,14.60
2022-10-17T20:51:21.274Z,14.60
2022-10-17T20:53:48.863Z,14.60
2022-10-17T20:56:21.826Z,14.60
2022-10-17T20:58:56.235Z,14.60
2022-10-17T21:01:23.822Z,14.60
2022-10-17T21:03:50.558Z,14.60
2022-10-17T21:06:18.258Z,14.60
2022-10-17T21:08:46.153Z,14.60
2022-10-17T21:11:15.179Z,14.60
2022-10-17T21:13:42.117Z,14.60
2022-10-17T21:16:15.192Z,14.60
2022-10-17T21:18:42.521Z,14.60
2022-10-17T21:21:10.645Z,14.60
2022-10-17T21:23:38.066Z,14.60
2022-10-17T21:26:07.015Z,14.60
2022-10-17T21:28:34.469Z,14.60
2022-10-17T21:31:12.905Z,14.60
2022-10-17T21:33:40.850Z,14.60
2022-10-17T21:36:08.569Z,14.60
2022-10-17T21:38:37.332Z,14.50
2022-10-17T21:41:05.858Z,14.60
2022-10-17T21:43:33.641Z,14.60
2022-10-17T21:46:10.137Z,14.50
2022-10-17T21:48:37.091Z,14.60
2022-10-17T21:51:06.997Z,14.50
2022-10-17T21:53:34.203Z,14.50
2022-10-17T21:56:02.317Z,14.50
2022-10-17T21:58:29.322Z,14.50
2022-10-17T22:01:07.953Z,14.50
2022-10-17T22:03:35.987Z,14.50
2022-10-17T22:06:12.694Z,14.50
2022-10-17T22:08:50.626Z,14.50
2022-10-17T22:11:32.013Z,14.50
2022-10-17T22:14:02.128Z,14.50
2022-10-17T22:16:28.825Z,14.40
2022-10-17T22:19:03.296Z,14.40
2022-10-17T22:21:32.989Z,14.40
2022-10-17T22:24:02.082Z,14.40
2022-10-17T22:26:30.673Z,14.40
2022-10-17T22:28:57.393Z,14.40
2022-10-17T22:31:24.430Z,14.40
2022-10-17T22:33:51.461Z,14.40
2022-10-17T22:36:18.364Z,14.30
2022-10-17T22:38:45.159Z,14.30
2022-10-17T22:41:11.746Z,14.30
2022-10-17T22:43:38.297Z,14.20
2022-10-17T22:46:06.368Z,14.20
2022-10-17T22:48:33.418Z,14.20
2022-10-17T22:51:01.034Z,14.20
2022-10-17T22:53:29.402Z,14.20
2022-10-17T22:56:01.790Z,14.20
2022-10-17T22:58:30.154Z,14.10
2022-10-17T23:00:56.955Z,14.10
2022-10-17T23:03:24.856Z,14.10
2022-10-17T23:05:51.553Z,14.10
2022-10-17T23:08:18.589Z,14.10
2022-10-17T23:10:46.356Z,14.10
2022-10-17T23:13:13.964Z,14.10
2022-10-17T23:15:41.095Z,14.10
2022-10-17T23:18:08.954Z,14.00
2022-10-17T23:20:36.481Z,14.00
2022-10-17T23:23:03.575Z,14.00
2022-10-17T23:25:30.222Z,14.00
2022-10-17T23:27:56.817Z,13.90
2022-10-17T23:30:23.431Z,13.90
2022-10-17T23:32:50.054Z,13.90
2022-10-17T23:35:16.727Z,13.90
2022-10-17T23:37:43.358Z,13.90
2022-10-17T23:40:10.576Z,13.90
2022-10-17T23:42:37.185Z,13.90
2022-10-17T23:45:04.004Z,13.80
2022-10-17T23:47:31.293Z,13.90
2022-10-17T23:49:58.270Z,13.80
2022-10-17T23:52:25.201Z,13.90
2022-10-17T23:54:51.822Z,13.90
2022-10-17T23:57:18.449Z,13.80
2022-10-17T23:59:45.274Z,13.80
